Lastovo, Croatia

12:06 PM CET on December 21, 2014 (GMT +0100)
Dalmacija | Change Station
CLOSE
Current Station
Personal Weather Station
Location: Vela Luka, Dalmacija
Elevation: 115 ft
Nearby Weather Stations

Elev 115 ft 42.96 °N, 16.73 °E | Updated 40 seconds ago

Partly Cloudy
Partly Cloudy
59.0 °F
Feels Like 59.0 °F
N
0.0
Wind Variable Wind from North
Gusts 0.0 mph

Today
High -- | Low -- °F
--% Chance of Precip.
Yesterday
High -- | Low -- °F
Precip. -- in
7:19 AM 4:21 PM
Waning Crescent, 0% visible
Pressure 30.27 in
Visibility 6.2 miles
Clouds Few 4000 ft
Dew Point 14 °F
Humidity 17%
Rainfall 0.00 in
Snow Depth Not available.
UV 2 out of 12
Pollen Not available.
Air Quality Not available.
Flu Activity Not available.
METAR LQMO 211100Z VRB07G18KT 9999 FEW040 14/M04 Q1025

More Conditions Fewer Conditions

Pressure 30.27 in
Visibility 6.2 miles
Clouds Few 4000 ft
Dew Point 14 °F
Humidity 17%
Rainfall 0.00 in
Snow Depth Not available.
UV 2 out of 12
Pollen Not available.
Air Quality Not available.
Flu Activity Not available.
METAR LQMO 211100Z VRB07G18KT 9999 FEW040 14/M04 Q1025

More Conditions Fewer Conditions

10-Day Weather Forecast

Almanac

Astronomy

Dec. 21, 2014 Rise Set
Actual Time
Civil Twilight
Nautical Twilight
Astronomical Twilight
Moon
Length of Visible Light
Length of Day
Tomorrow will be .
, % of the Moon is Illuminated

Today's Extremes

Country Highs Country Lows

Community

WunderPhotos

Upload Photos

1,779,367 photos uploaded!

WunderBlogs® & News

Nearby

Air Quality

  Air Quality AQ Index Pollutant
Not available.

Snow Depth

Station Depth Elevation

Earthquake Activity

City Distance Mag. Time & Date
Minimum magnitude displayed is 2.5.

Coastal Water Temperatures

Place Temperature

Nearby Weather Stations